createdAt,value
2022-07-25T00:01:15.678Z,22.75
2022-07-25T00:03:42.015Z,28.88
2022-07-25T00:06:13.526Z,37.75
2022-07-25T00:08:44.391Z,37.67
2022-07-25T00:11:10.693Z,51.25
2022-07-25T00:13:37.005Z,56.63
2022-07-25T00:16:03.340Z,57.22
2022-07-25T00:18:29.746Z,61.67
2022-07-25T00:20:56.059Z,62.42
2022-07-25T00:23:22.367Z,66.50
2022-07-25T00:25:48.653Z,63.75
2022-07-25T00:28:15.039Z,70.05
2022-07-25T00:30:41.362Z,63.58
2022-07-25T00:33:07.669Z,66.57
2022-07-25T00:35:33.983Z,67.03
2022-07-25T00:38:00.318Z,66.63
2022-07-25T00:40:26.737Z,70.28
2022-07-25T00:42:53.109Z,74.40
2022-07-25T00:45:19.435Z,73.05
2022-07-25T00:47:45.738Z,60.20
2022-07-25T00:50:12.053Z,67.18
2022-07-25T00:52:38.356Z,70.22
2022-07-25T00:55:04.684Z,67.78
2022-07-25T00:57:31.007Z,69.60
2022-07-25T00:59:57.319Z,63.60
2022-07-25T01:02:23.683Z,67.65
2022-07-25T01:04:50.043Z,72.40
2022-07-25T01:07:16.401Z,66.72
2022-07-25T01:09:42.678Z,75.75
2022-07-25T01:12:08.991Z,70.22
2022-07-25T01:14:36.613Z,65.03
2022-07-25T01:17:02.907Z,72.40
2022-07-25T01:19:29.229Z,69.07
2022-07-25T01:21:56.281Z,69.30
2022-07-25T01:24:22.547Z,76.17
2022-07-25T01:26:48.868Z,75.10
2022-07-25T01:29:15.187Z,73.55
2022-07-25T01:31:41.484Z,97.13
2022-07-25T01:34:08.049Z,86.40
2022-07-25T01:36:34.526Z,95.45
2022-07-25T01:39:00.841Z,98.07
2022-07-25T01:41:27.131Z,108.28
2022-07-25T01:43:53.458Z,97.45
2022-07-25T01:46:19.787Z,108.65
2022-07-25T01:48:46.207Z,109.20
2022-07-25T01:51:12.554Z,99.10
2022-07-25T01:53:39.156Z,105.93
2022-07-25T01:56:05.967Z,103.28
2022-07-25T01:58:34.606Z,108.97
2022-07-25T02:01:00.931Z,111.47
2022-07-25T02:03:30.110Z,124.38
2022-07-25T02:05:56.404Z,119.30
2022-07-25T02:08:23.176Z,101.25
2022-07-25T02:10:49.482Z,108.28
2022-07-25T02:13:15.793Z,113.32
2022-07-25T02:15:42.084Z,114.07
2022-07-25T02:18:08.397Z,115.85
2022-07-25T02:20:34.715Z,111.25
2022-07-25T02:23:01.022Z,119.70
2022-07-25T02:25:27.314Z,116.88
2022-07-25T02:27:53.622Z,112.68
2022-07-25T02:30:19.963Z,107.40
2022-07-25T02:32:46.301Z,116.30
2022-07-25T02:35:13.486Z,110.80
2022-07-25T02:37:39.853Z,113.70
2022-07-25T02:40:06.319Z,110.53
2022-07-25T02:42:32.611Z,107.03
2022-07-25T02:44:58.927Z,103.15
2022-07-25T02:47:25.224Z,109.80
2022-07-25T02:49:51.548Z,112.80
2022-07-25T02:52:17.874Z,113.75
2022-07-25T02:54:44.188Z,107.05
2022-07-25T02:57:10.489Z,125.38
2022-07-25T02:59:36.792Z,105.22
2022-07-25T03:02:03.079Z,111.68
2022-07-25T03:04:31.010Z,115.68
2022-07-25T03:06:57.402Z,108.43
2022-07-25T03:09:23.735Z,111.65
2022-07-25T03:11:51.829Z,111.43
2022-07-25T03:14:18.141Z,109.20
2022-07-25T03:16:44.507Z,114.82
2022-07-25T03:19:12.724Z,112.22
2022-07-25T03:21:39.017Z,113.55
2022-07-25T03:24:05.644Z,111.97
2022-07-25T03:26:32.239Z,109.70
2022-07-25T03:28:58.539Z,110.30
2022-07-25T03:31:24.909Z,97.97
2022-07-25T03:33:51.262Z,100.60
2022-07-25T03:36:17.591Z,102.57
2022-07-25T03:38:43.890Z,98.18
2022-07-25T03:41:10.192Z,97.47
2022-07-25T03:43:36.501Z,94.72
2022-07-25T03:46:02.844Z,90.45
2022-07-25T03:48:29.218Z,99.63
2022-07-25T03:50:55.525Z,89.22
2022-07-25T03:53:21.835Z,91.75
2022-07-25T03:55:48.134Z,90.03
2022-07-25T03:58:14.458Z,90.85
2022-07-25T04:00:40.823Z,90.90
2022-07-25T04:03:07.483Z,89.45
2022-07-25T04:05:33.793Z,91.38
2022-07-25T04:08:00.415Z,90.05
2022-07-25T04:10:26.731Z,86.85
2022-07-25T04:12:53.034Z,85.10
2022-07-25T04:15:19.355Z,87.82
2022-07-25T04:17:45.639Z,82.72
2022-07-25T04:20:11.973Z,85.38
2022-07-25T04:22:40.090Z,81.88
2022-07-25T04:25:08.546Z,93.00
2022-07-25T04:27:34.839Z,85.85
2022-07-25T04:30:01.171Z,83.53
2022-07-25T04:32:27.522Z,81.28
2022-07-25T04:34:55.303Z,80.78
2022-07-25T04:37:21.803Z,77.78
2022-07-25T04:39:48.130Z,85.18
2022-07-25T04:42:14.438Z,83.38
2022-07-25T04:44:40.760Z,74.05
2022-07-25T04:47:07.074Z,69.07
2022-07-25T04:49:33.391Z,66.93
2022-07-25T04:51:59.677Z,63.25
2022-07-25T04:54:26.024Z,62.78
2022-07-25T04:56:52.324Z,53.58
2022-07-25T04:59:18.629Z,46.70
2022-07-25T05:01:44.957Z,41.33
2022-07-25T05:04:11.335Z,40.22
2022-07-25T05:06:37.637Z,46.47
2022-07-25T05:09:03.969Z,41.15
2022-07-25T05:11:30.268Z,38.75
2022-07-25T05:13:56.583Z,37.42
2022-07-25T05:16:22.985Z,32.65
2022-07-25T05:18:49.307Z,35.85
2022-07-25T05:21:15.595Z,37.60
2022-07-25T05:23:41.914Z,33.60
2022-07-25T05:26:08.218Z,35.22
2022-07-25T05:28:34.535Z,30.15
2022-07-25T05:31:00.909Z,33.05
2022-07-25T05:33:27.379Z,33.38
2022-07-25T05:35:53.697Z,32.78
2022-07-25T05:38:20.107Z,36.25
2022-07-25T05:40:47.497Z,43.92
2022-07-25T05:43:13.809Z,30.60
2022-07-25T05:45:40.110Z,32.67
2022-07-25T05:48:06.637Z,29.88
2022-07-25T05:50:32.941Z,33.42
2022-07-25T05:52:59.257Z,32.97
2022-07-25T05:55:25.572Z,26.45
2022-07-25T05:57:51.885Z,30.58
2022-07-25T06:00:18.226Z,34.83
2022-07-25T06:02:44.805Z,30.10
2022-07-25T06:05:11.259Z,26.45
2022-07-25T06:07:37.773Z,26.85
2022-07-25T06:10:04.080Z,26.08
2022-07-25T06:12:30.406Z,29.77
2022-07-25T06:14:56.734Z,32.80
2022-07-25T06:17:23.407Z,36.05
2022-07-25T06:19:49.707Z,25.50
2022-07-25T06:22:16.007Z,28.35
2022-07-25T06:24:42.306Z,31.90
2022-07-25T06:27:08.867Z,28.60
2022-07-25T06:29:35.189Z,22.92
2022-07-25T06:32:01.566Z,28.83
2022-07-25T06:34:28.881Z,24.65
2022-07-25T06:36:55.354Z,25.67
2022-07-25T06:39:21.660Z,30.88
2022-07-25T06:41:47.979Z,30.27
2022-07-25T06:44:14.277Z,27.60
2022-07-25T06:46:40.676Z,28.20
2022-07-25T06:49:07.142Z,23.17
2022-07-25T06:51:34.044Z,23.98
2022-07-25T06:54:00.332Z,23.23
2022-07-25T06:56:31.272Z,20.45
2022-07-25T06:58:57.678Z,22.88
2022-07-25T07:01:24.046Z,20.13
2022-07-25T07:03:50.462Z,14.90
2022-07-25T07:06:16.807Z,16.15
2022-07-25T07:08:43.134Z,15.98
2022-07-25T07:11:09.442Z,17.40
2022-07-25T07:13:35.730Z,14.18
2022-07-25T07:16:02.564Z,12.52
2022-07-25T07:18:28.908Z,11.65
2022-07-25T07:20:55.208Z,12.32
2022-07-25T07:23:21.520Z,10.48
2022-07-25T07:25:48.174Z,10.88
2022-07-25T07:28:14.423Z,13.07
2022-07-25T07:33:27.021Z,7.78
2022-07-25T07:35:55.887Z,8.50
2022-07-25T07:38:22.194Z,11.60
2022-07-25T07:40:48.884Z,10.13
2022-07-25T07:43:15.193Z,8.50
2022-07-25T07:45:41.488Z,9.13
2022-07-25T07:48:08.032Z,8.75
2022-07-25T07:50:34.325Z,6.40
2022-07-25T07:53:00.652Z,9.02
2022-07-25T07:55:45.566Z,5.00
2022-07-25T07:58:11.998Z,9.13
2022-07-25T08:00:39.405Z,7.32
2022-07-25T08:03:06.634Z,6.13
2022-07-25T08:05:33.027Z,6.45
2022-07-25T08:07:59.534Z,6.00
2022-07-25T08:10:26.049Z,6.05
2022-07-25T08:12:52.376Z,7.35
2022-07-25T08:15:18.700Z,5.18
2022-07-25T08:17:45.012Z,6.10
2022-07-25T08:20:35.723Z,8.60
2022-07-25T08:22:57.526Z,4.77
2022-07-25T08:25:23.816Z,5.45
2022-07-25T08:27:50.126Z,6.03
2022-07-25T08:30:16.427Z,5.63
2022-07-25T08:32:42.751Z,5.55
2022-07-25T08:35:11.538Z,5.97
2022-07-25T08:37:38.008Z,4.85
2022-07-25T08:40:04.308Z,6.57
2022-07-25T08:42:30.602Z,8.88
2022-07-25T08:44:56.889Z,5.75
2022-07-25T08:47:23.332Z,7.93
2022-07-25T08:49:49.582Z,4.97
2022-07-25T08:52:15.890Z,5.32
2022-07-25T08:54:42.491Z,5.85
2022-07-25T08:57:08.724Z,7.17
2022-07-25T08:59:35.014Z,5.80
2022-07-25T09:02:03.741Z,7.15
2022-07-25T09:04:30.462Z,7.45
2022-07-25T09:06:56.792Z,6.13
2022-07-25T09:09:23.095Z,11.52
2022-07-25T09:11:50.425Z,6.20
2022-07-25T09:14:16.722Z,5.40
2022-07-25T09:16:43.206Z,5.35
2022-07-25T09:19:10.812Z,6.22
2022-07-25T09:21:37.168Z,8.18
2022-07-25T09:24:04.096Z,5.45
2022-07-25T09:26:30.673Z,7.10
2022-07-25T09:28:56.968Z,7.65
2022-07-25T09:31:23.290Z,5.63
2022-07-25T09:33:49.636Z,5.45
2022-07-25T09:36:15.949Z,8.35
2022-07-25T09:38:42.243Z,6.75
2022-07-25T09:41:09.228Z,8.95
2022-07-25T09:43:36.419Z,5.38
2022-07-25T09:46:02.805Z,5.75
2022-07-25T09:48:29.133Z,5.27
2022-07-25T09:50:55.496Z,6.82
2022-07-25T09:53:21.754Z,5.10
2022-07-25T09:55:48.065Z,8.93
2022-07-25T09:58:14.372Z,5.65
2022-07-25T10:00:43.774Z,5.72
2022-07-25T10:03:10.142Z,7.50
2022-07-25T10:05:36.422Z,5.30
2022-07-25T10:08:02.736Z,6.15
2022-07-25T10:10:29.063Z,5.10
2022-07-25T10:12:55.532Z,4.68
2022-07-25T10:15:21.838Z,5.60
2022-07-25T10:17:49.577Z,8.65
2022-07-25T10:20:15.863Z,5.60
2022-07-25T10:22:58.270Z,24.17
2022-07-25T10:25:49.526Z,6.20
2022-07-25T10:28:15.850Z,7.25
2022-07-25T10:30:42.217Z,6.68
2022-07-25T10:33:08.483Z,6.47
2022-07-25T10:35:34.837Z,5.78
2022-07-25T10:38:01.133Z,5.43
2022-07-25T10:40:27.368Z,9.20
2022-07-25T10:42:53.672Z,7.18
2022-07-25T10:45:19.992Z,5.03
2022-07-25T10:47:46.571Z,6.40
2022-07-25T10:50:34.734Z,6.47
2022-07-25T10:52:59.977Z,6.47
2022-07-25T10:58:16.192Z,6.18
2022-07-25T11:00:38.775Z,5.93
2022-07-25T11:03:05.151Z,9.05
2022-07-25T11:05:31.514Z,7.13
2022-07-25T11:08:20.505Z,6.10
2022-07-25T11:10:44.113Z,6.93
2022-07-25T11:13:10.419Z,6.45
2022-07-25T11:15:36.723Z,8.07
2022-07-25T11:18:02.996Z,7.67
2022-07-25T11:20:29.321Z,6.97
2022-07-25T11:22:55.625Z,5.45
2022-07-25T11:25:22.837Z,7.83
2022-07-25T11:27:49.405Z,7.72
2022-07-25T11:30:15.787Z,7.15
2022-07-25T11:32:42.021Z,5.30
2022-07-25T11:40:02.960Z,6.75
2022-07-25T11:42:29.282Z,5.75
2022-07-25T11:44:55.502Z,6.47
2022-07-25T11:47:22.085Z,5.13
2022-07-25T11:49:48.415Z,8.00
2022-07-25T11:52:14.717Z,11.93
2022-07-25T11:54:40.955Z,7.13
2022-07-25T11:57:08.840Z,6.00
2022-07-25T11:59:35.145Z,4.90
2022-07-25T12:02:01.711Z,7.57
2022-07-25T12:04:28.622Z,5.65
2022-07-25T12:06:55.339Z,9.68
2022-07-25T12:09:21.649Z,6.00
2022-07-25T12:11:47.900Z,5.60
2022-07-25T12:14:14.207Z,5.15
2022-07-25T12:16:40.678Z,6.43
2022-07-25T12:19:07.257Z,5.55
2022-07-25T12:21:33.855Z,8.15
2022-07-25T12:24:00.108Z,6.57
2022-07-25T12:26:26.618Z,5.63
2022-07-25T12:28:52.925Z,10.68
2022-07-25T12:31:19.254Z,7.77
2022-07-25T12:33:45.605Z,5.13
2022-07-25T12:36:11.852Z,5.53
2022-07-25T12:38:38.195Z,5.97
2022-07-25T12:41:04.423Z,7.03
2022-07-25T12:43:30.764Z,7.93
2022-07-25T12:45:57.037Z,7.17
2022-07-25T12:48:23.356Z,5.82
2022-07-25T12:50:49.637Z,6.83
2022-07-25T12:53:16.249Z,5.38
2022-07-25T12:55:42.574Z,6.63
2022-07-25T12:58:09.085Z,6.17
2022-07-25T13:00:35.424Z,5.70
2022-07-25T13:03:01.762Z,6.27
2022-07-25T13:05:28.015Z,5.97
2022-07-25T13:07:54.313Z,5.63
2022-07-25T13:10:20.574Z,8.53
2022-07-25T13:12:46.881Z,5.10
2022-07-25T13:15:13.151Z,4.70
2022-07-25T13:17:40.379Z,9.57
2022-07-25T13:22:32.998Z,6.00
2022-07-25T13:24:59.266Z,5.97
2022-07-25T13:27:25.561Z,7.20
2022-07-25T13:29:54.554Z,7.17
2022-07-25T13:32:21.274Z,6.55
2022-07-25T13:34:47.532Z,5.57
2022-07-25T13:37:13.833Z,8.32
2022-07-25T13:39:42.139Z,5.80
2022-07-25T13:42:08.455Z,5.97
2022-07-25T13:44:34.700Z,6.73
2022-07-25T13:47:00.982Z,6.20
2022-07-25T13:49:27.277Z,6.10
2022-07-25T13:51:53.551Z,6.63
2022-07-25T13:54:19.783Z,5.37
2022-07-25T13:56:46.280Z,6.90
2022-07-25T13:59:18.834Z,5.75
2022-07-25T14:01:47.437Z,5.45
2022-07-25T14:04:13.802Z,6.78
2022-07-25T14:06:40.031Z,7.33
2022-07-25T14:09:06.572Z,6.78
2022-07-25T14:11:33.106Z,5.35
2022-07-25T14:13:59.408Z,6.18
2022-07-25T14:16:25.684Z,6.50
2022-07-25T14:18:52.137Z,7.83
2022-07-25T14:21:18.679Z,8.05
2022-07-25T14:23:44.985Z,7.47
2022-07-25T14:26:11.276Z,5.57
2022-07-25T14:28:37.521Z,7.27
2022-07-25T14:31:03.850Z,7.32
2022-07-25T14:33:30.081Z,5.93
2022-07-25T14:35:56.372Z,6.03
2022-07-25T14:38:22.595Z,6.57
2022-07-25T14:40:48.975Z,5.18
2022-07-25T14:43:15.216Z,5.57
2022-07-25T14:45:41.506Z,8.13
2022-07-25T14:48:07.744Z,7.07
2022-07-25T14:50:34.071Z,5.10
2022-07-25T14:53:00.291Z,5.77
2022-07-25T14:55:26.943Z,8.15
2022-07-25T14:57:53.270Z,6.68
2022-07-25T15:00:19.573Z,8.07
2022-07-25T15:02:45.840Z,4.93
2022-07-25T15:05:12.197Z,5.22
2022-07-25T15:07:38.524Z,6.43
2022-07-25T15:10:04.766Z,5.40
2022-07-25T15:12:31.535Z,5.50
2022-07-25T15:14:57.823Z,7.38
2022-07-25T15:17:24.068Z,5.57
2022-07-25T15:19:50.432Z,5.45
2022-07-25T15:22:16.801Z,7.00
2022-07-25T15:25:06.768Z,13.63
2022-07-25T15:27:29.327Z,5.30
2022-07-25T15:29:55.598Z,6.70
2022-07-25T15:32:21.829Z,5.77
2022-07-25T15:34:48.139Z,4.93
2022-07-25T15:37:14.367Z,6.47
2022-07-25T15:39:40.679Z,6.00
2022-07-25T15:42:06.953Z,5.33
2022-07-25T15:44:33.179Z,5.93
2022-07-25T15:46:59.530Z,5.47
2022-07-25T15:49:25.927Z,6.73
2022-07-25T15:51:52.302Z,6.03
2022-07-25T15:54:18.533Z,6.47
2022-07-25T15:56:44.895Z,8.63
2022-07-25T15:59:11.125Z,6.07
2022-07-25T16:01:37.492Z,6.30
2022-07-25T16:04:03.959Z,6.03
2022-07-25T16:06:30.544Z,9.48
2022-07-25T16:08:56.891Z,7.95
2022-07-25T16:11:23.114Z,5.93
2022-07-25T16:13:49.426Z,4.82
2022-07-25T16:16:15.988Z,7.43
2022-07-25T16:18:42.325Z,5.20
2022-07-25T16:21:08.552Z,6.87
2022-07-25T16:23:41.523Z,14.60
2022-07-25T16:26:12.249Z,5.20
2022-07-25T16:28:39.541Z,6.28
2022-07-25T16:31:05.912Z,5.13
2022-07-25T16:33:32.270Z,5.82
2022-07-25T16:35:58.607Z,7.10
2022-07-25T16:38:25.378Z,7.20
2022-07-25T16:40:51.691Z,5.20
2022-07-25T16:43:17.935Z,5.77
2022-07-25T16:45:44.265Z,7.85
2022-07-25T16:48:10.496Z,5.23
2022-07-25T16:50:36.780Z,7.30
2022-07-25T16:53:03.211Z,6.55
2022-07-25T16:55:29.529Z,5.82
2022-07-25T16:57:55.776Z,4.53
2022-07-25T17:00:22.074Z,6.40
2022-07-25T17:02:51.816Z,5.13
2022-07-25T17:05:18.327Z,6.05
2022-07-25T17:07:45.586Z,5.78
2022-07-25T17:10:11.830Z,7.63
2022-07-25T17:12:38.169Z,5.43
2022-07-25T17:15:04.466Z,5.10
2022-07-25T17:17:31.652Z,5.10
2022-07-25T17:20:00.087Z,5.78
2022-07-25T17:22:26.643Z,5.95
2022-07-25T17:24:52.945Z,5.07
2022-07-25T17:27:19.246Z,5.55
2022-07-25T17:29:45.487Z,4.93
2022-07-25T17:32:11.768Z,4.63
2022-07-25T17:34:38.064Z,4.75
2022-07-25T17:37:04.356Z,5.28
2022-07-25T17:39:30.635Z,6.35
2022-07-25T17:41:56.961Z,4.53
2022-07-25T17:44:23.259Z,8.30
2022-07-25T17:46:50.464Z,5.38
2022-07-25T17:51:43.225Z,5.95
2022-07-25T17:54:09.906Z,6.43
2022-07-25T17:56:36.583Z,4.65
2022-07-25T17:59:02.843Z,5.90
2022-07-25T18:01:29.232Z,4.85
2022-07-25T18:03:55.558Z,4.87
2022-07-25T18:06:25.129Z,5.82
2022-07-25T18:08:55.837Z,7.63
2022-07-25T18:11:22.230Z,6.40
2022-07-25T18:13:48.456Z,6.20
2022-07-25T18:16:14.915Z,6.57
2022-07-25T18:18:41.304Z,18.77
2022-07-25T18:21:07.587Z,15.20
2022-07-25T18:23:33.964Z,22.52
2022-07-25T18:26:00.276Z,18.98
2022-07-25T18:28:26.623Z,10.27
2022-07-25T18:30:52.954Z,21.17
2022-07-25T18:33:20.147Z,11.80
2022-07-25T18:35:46.474Z,7.55
2022-07-25T18:38:12.836Z,7.25
2022-07-25T18:40:39.143Z,8.85
2022-07-25T18:43:08.205Z,16.15
2022-07-25T18:45:35.383Z,7.75
2022-07-25T18:48:01.686Z,7.75
2022-07-25T18:50:27.970Z,6.78
2022-07-25T18:52:54.296Z,15.20
2022-07-25T18:55:20.592Z,21.63
2022-07-25T18:57:46.905Z,8.77
2022-07-25T19:00:13.200Z,14.88
2022-07-25T19:02:39.543Z,11.90
2022-07-25T19:05:06.260Z,11.93
2022-07-25T19:07:32.694Z,14.20
2022-07-25T19:09:59.000Z,32.10
2022-07-25T19:12:27.141Z,94.00
2022-07-25T19:14:53.478Z,85.88
2022-07-25T19:17:19.956Z,99.88
2022-07-25T19:19:46.264Z,124.95
2022-07-25T19:22:12.555Z,132.00
2022-07-25T19:24:38.862Z,134.68
2022-07-25T19:27:05.177Z,121.32
2022-07-25T19:29:31.487Z,125.72
2022-07-25T19:31:57.779Z,117.63
2022-07-25T19:34:24.081Z,127.43
2022-07-25T19:36:50.407Z,141.48
2022-07-25T19:39:17.488Z,163.48
2022-07-25T19:41:46.829Z,162.80
2022-07-25T19:44:13.546Z,216.35
2022-07-25T19:46:39.890Z,185.00
2022-07-25T19:49:06.340Z,180.10
2022-07-25T19:51:32.885Z,165.18
2022-07-25T19:53:59.194Z,162.43
2022-07-25T19:56:25.528Z,172.25
2022-07-25T19:58:51.837Z,145.32
2022-07-25T20:01:18.236Z,136.68
2022-07-25T20:03:44.613Z,113.30
2022-07-25T20:06:10.931Z,68.35
2022-07-25T20:08:39.138Z,38.08
2022-07-25T20:11:05.423Z,27.77
2022-07-25T20:13:31.834Z,24.25
2022-07-25T20:15:58.675Z,17.27
2022-07-25T20:18:24.996Z,21.10
2022-07-25T20:20:51.289Z,14.60
2022-07-25T20:23:17.602Z,14.80
2022-07-25T20:25:43.907Z,11.57
2022-07-25T20:28:10.219Z,13.00
2022-07-25T20:30:36.555Z,17.48
2022-07-25T20:33:05.563Z,18.35
2022-07-25T20:35:35.789Z,19.63
2022-07-25T20:38:02.094Z,26.20
2022-07-25T20:40:28.629Z,24.20
2022-07-25T20:42:55.647Z,21.70
2022-07-25T20:45:21.957Z,22.48
2022-07-25T20:47:48.244Z,18.45
2022-07-25T20:50:14.545Z,25.75
2022-07-25T20:52:40.852Z,21.48
2022-07-25T20:55:08.877Z,20.30
2022-07-25T20:57:35.167Z,16.50
2022-07-25T21:00:01.476Z,17.25
2022-07-25T21:02:27.857Z,16.77
2022-07-25T21:04:54.235Z,21.67
2022-07-25T21:07:20.605Z,20.95
2022-07-25T21:09:46.907Z,16.88
2022-07-25T21:12:13.198Z,17.80
2022-07-25T21:14:39.500Z,20.23
2022-07-25T21:17:05.947Z,19.10
2022-07-25T21:19:32.344Z,18.35
2022-07-25T21:21:58.640Z,18.15
2022-07-25T21:24:24.941Z,16.83
2022-07-25T21:26:51.467Z,19.83
2022-07-25T21:29:18.146Z,14.75
2022-07-25T21:31:44.439Z,17.80
2022-07-25T21:34:10.788Z,16.65
2022-07-25T21:36:37.103Z,16.58
2022-07-25T21:39:03.411Z,18.75
2022-07-25T21:41:29.725Z,21.17
2022-07-25T21:43:56.015Z,17.05
2022-07-25T21:46:22.459Z,16.30
2022-07-25T21:49:07.623Z,19.58
2022-07-25T21:51:40.399Z,20.80
2022-07-25T21:54:07.396Z,31.63
2022-07-25T21:56:33.715Z,39.60
2022-07-25T21:59:00.011Z,28.98
2022-07-25T22:01:26.344Z,27.48
2022-07-25T22:03:52.876Z,29.35
2022-07-25T22:06:19.288Z,29.55
2022-07-25T22:08:45.631Z,31.80
2022-07-25T22:11:20.841Z,38.28
2022-07-25T22:13:58.230Z,32.07
2022-07-25T22:16:25.087Z,36.80
2022-07-25T22:18:51.408Z,32.92
2022-07-25T22:21:17.722Z,32.53
2022-07-25T22:23:44.700Z,35.03
2022-07-25T22:26:11.021Z,30.77
2022-07-25T22:28:37.340Z,35.28
2022-07-25T22:31:03.985Z,35.93
2022-07-25T22:33:31.018Z,31.80
2022-07-25T22:35:57.513Z,35.28
2022-07-25T22:38:23.817Z,30.98
2022-07-25T22:40:50.120Z,21.48
2022-07-25T22:43:16.410Z,14.50
2022-07-25T22:45:43.169Z,13.32
2022-07-25T22:48:09.495Z,15.10
2022-07-25T22:50:35.796Z,12.98
2022-07-25T22:53:02.087Z,10.40
2022-07-25T22:55:28.405Z,11.93
2022-07-25T22:57:54.700Z,13.27
2022-07-25T23:00:21.005Z,8.75
2022-07-25T23:02:47.324Z,14.63
2022-07-25T23:05:13.680Z,11.88
2022-07-25T23:07:39.976Z,11.93
2022-07-25T23:10:06.339Z,11.60
2022-07-25T23:12:32.637Z,10.48
2022-07-25T23:14:58.971Z,15.75
2022-07-25T23:17:25.311Z,25.10
2022-07-25T23:19:51.653Z,23.98
2022-07-25T23:22:17.976Z,27.40
2022-07-25T23:24:44.296Z,27.23
2022-07-25T23:27:10.579Z,28.95
2022-07-25T23:29:36.878Z,23.20
2022-07-25T23:32:03.285Z,30.63
2022-07-25T23:34:29.667Z,25.55
2022-07-25T23:36:55.982Z,25.73
2022-07-25T23:39:22.303Z,28.42
2022-07-25T23:41:48.584Z,24.65
2022-07-25T23:44:14.892Z,26.75
2022-07-25T23:46:41.241Z,29.30
2022-07-25T23:49:09.824Z,29.45
2022-07-25T23:51:36.462Z,25.95
2022-07-25T23:54:02.916Z,23.65
2022-07-25T23:56:29.213Z,24.50
2022-07-25T23:58:55.543Z,24.23
